sensor_id;sensor_type;location;lat;lon;timestamp;pressure;altitude;pressure_sealevel;temperature;humidity
60465;BME280;46314;52.392;9.758;2023-02-21T00:00:22;100879.31;;;9.87;100.00
60465;BME280;46314;52.392;9.758;2023-02-21T00:02:48;100879.47;;;10.01;100.00
60465;BME280;46314;52.392;9.758;2023-02-21T00:05:16;100881.16;;;9.68;100.00
60465;BME280;46314;52.392;9.758;2023-02-21T00:07:43;100879.28;;;9.92;100.00
60465;BME280;46314;52.392;9.758;2023-02-21T00:10:12;100877.72;;;9.81;100.00
60465;BME280;46314;52.392;9.758;2023-02-21T00:12:39;100871.59;;;9.84;100.00
60465;BME280;46314;52.392;9.758;2023-02-21T00:15:06;100882.75;;;9.74;100.00
60465;BME280;46314;52.392;9.758;2023-02-21T00:17:32;100870.50;;;9.85;100.00
60465;BME280;46314;52.392;9.758;2023-02-21T00:19:59;100879.69;;;9.41;100.00
60465;BME280;46314;52.392;9.758;2023-02-21T00:22:27;100880.03;;;9.69;100.00
60465;BME280;46314;52.392;9.758;2023-02-21T00:24:53;100871.44;;;9.36;100.00
60465;BME280;46314;52.392;9.758;2023-02-21T00:27:20;100876.41;;;9.34;100.00
60465;BME280;46314;52.392;9.758;2023-02-21T00:29:47;100874.13;;;10.10;100.00
60465;BME280;46314;52.392;9.758;2023-02-21T00:32:14;100859.66;;;10.13;100.00
60465;BME280;46314;52.392;9.758;2023-02-21T00:34:41;100860.03;;;10.06;100.00
60465;BME280;46314;52.392;9.758;2023-02-21T00:37:07;100874.38;;;9.84;100.00
60465;BME280;46314;52.392;9.758;2023-02-21T00:39:35;100861.84;;;9.86;100.00
60465;BME280;46314;52.392;9.758;2023-02-21T00:42:02;100871.94;;;9.77;100.00
60465;BME280;46314;52.392;9.758;2023-02-21T00:44:28;100870.91;;;9.68;100.00
60465;BME280;46314;52.392;9.758;2023-02-21T00:46:54;100866.25;;;9.58;100.00
60465;BME280;46314;52.392;9.758;2023-02-21T00:49:21;100868.47;;;9.61;100.00
60465;BME280;46314;52.392;9.758;2023-02-21T00:51:48;100870.88;;;9.73;100.00
60465;BME280;46314;52.392;9.758;2023-02-21T00:54:14;100871.56;;;9.55;100.00
60465;BME280;46314;52.392;9.758;2023-02-21T00:56:42;100872.44;;;9.79;100.00
60465;BME280;46314;52.392;9.758;2023-02-21T00:59:08;100877.41;;;9.82;100.00
60465;BME280;46314;52.392;9.758;2023-02-21T01:01:35;100873.34;;;9.75;100.00
60465;BME280;46314;52.392;9.758;2023-02-21T01:04:01;100878.44;;;9.92;100.00
60465;BME280;46314;52.392;9.758;2023-02-21T01:06:28;100870.38;;;9.95;100.00
60465;BME280;46314;52.392;9.758;2023-02-21T01:08:54;100871.94;;;10.07;100.00
60465;BME280;46314;52.392;9.758;2023-02-21T01:11:21;100861.84;;;10.16;100.00
60465;BME280;46314;52.392;9.758;2023-02-21T01:13:49;100872.16;;;10.10;100.00
60465;BME280;46314;52.392;9.758;2023-02-21T01:16:15;100876.06;;;9.80;100.00
60465;BME280;46314;52.392;9.758;2023-02-21T01:18:42;100866.00;;;9.89;100.00
60465;BME280;46314;52.392;9.758;2023-02-21T01:21:11;100877.75;;;9.76;100.00
60465;BME280;46314;52.392;9.758;2023-02-21T01:23:38;100873.28;;;10.09;100.00
60465;BME280;46314;52.392;9.758;2023-02-21T01:26:07;100869.84;;;9.64;100.00
60465;BME280;46314;52.392;9.758;2023-02-21T01:28:34;100870.97;;;9.92;100.00
60465;BME280;46314;52.392;9.758;2023-02-21T01:31:01;100863.72;;;9.96;100.00
60465;BME280;46314;52.392;9.758;2023-02-21T01:33:28;100867.28;;;9.73;100.00
60465;BME280;46314;52.392;9.758;2023-02-21T01:35:54;100874.56;;;9.58;100.00
60465;BME280;46314;52.392;9.758;2023-02-21T01:38:21;100861.91;;;9.81;100.00
60465;BME280;46314;52.392;9.758;2023-02-21T01:40:47;100870.03;;;10.02;100.00
60465;BME280;46314;52.392;9.758;2023-02-21T01:43:15;100878.53;;;9.81;100.00
60465;BME280;46314;52.392;9.758;2023-02-21T01:45:46;100877.72;;;9.81;100.00
60465;BME280;46314;52.392;9.758;2023-02-21T01:48:16;100877.13;;;9.84;100.00
60465;BME280;46314;52.392;9.758;2023-02-21T01:50:44;100867.81;;;9.75;100.00
60465;BME280;46314;52.392;9.758;2023-02-21T01:53:18;100871.78;;;9.93;100.00
60465;BME280;46314;52.392;9.758;2023-02-21T01:55:45;100871.44;;;9.99;100.00
60465;BME280;46314;52.392;9.758;2023-02-21T01:58:11;100872.16;;;10.10;100.00
60465;BME280;46314;52.392;9.758;2023-02-21T02:00:38;100865.50;;;10.11;100.00
60465;BME280;46314;52.392;9.758;2023-02-21T02:03:06;100873.53;;;9.83;100.00
60465;BME280;46314;52.392;9.758;2023-02-21T02:05:35;100865.44;;;10.16;100.00
60465;BME280;46314;52.392;9.758;2023-02-21T02:08:02;100871.94;;;10.07;100.00
60465;BME280;46314;52.392;9.758;2023-02-21T02:10:29;100880.09;;;10.22;100.00
60465;BME280;46314;52.392;9.758;2023-02-21T02:13:18;100873.75;;;9.92;100.00
60465;BME280;46314;52.392;9.758;2023-02-21T02:15:54;100871.72;;;10.51;100.00
60465;BME280;46314;52.392;9.758;2023-02-21T02:18:32;100882.25;;;10.01;100.00
60465;BME280;46314;52.392;9.758;2023-02-21T02:24:27;100883.31;;;10.05;100.00
60465;BME280;46314;52.392;9.758;2023-02-21T02:27:16;100877.94;;;9.84;100.00
60465;BME280;46314;52.392;9.758;2023-02-21T02:30:02;100878.84;;;9.80;100.00
60465;BME280;46314;52.392;9.758;2023-02-21T02:32:57;100885.69;;;9.88;100.00
60465;BME280;46314;52.392;9.758;2023-02-21T02:35:33;100873.19;;;9.90;100.00
60465;BME280;46314;52.392;9.758;2023-02-21T02:38:03;100875.56;;;10.02;100.00
60465;BME280;46314;52.392;9.758;2023-02-21T02:40:36;100877.66;;;9.86;100.00
60465;BME280;46314;52.392;9.758;2023-02-21T02:43:08;100875.19;;;9.55;100.00
60465;BME280;46314;52.392;9.758;2023-02-21T02:45:42;100870.88;;;10.27;100.00
60465;BME280;46314;52.392;9.758;2023-02-21T02:48:13;100871.00;;;9.87;100.00
60465;BME280;46314;52.392;9.758;2023-02-21T02:50:45;100882.63;;;9.89;100.00
60465;BME280;46314;52.392;9.758;2023-02-21T02:53:15;100879.56;;;9.91;100.00
60465;BME280;46314;52.392;9.758;2023-02-21T02:55:44;100886.47;;;9.93;100.00
60465;BME280;46314;52.392;9.758;2023-02-21T02:58:14;100894.25;;;9.91;100.00
60465;BME280;46314;52.392;9.758;2023-02-21T03:00:49;100880.78;;;10.09;100.00
60465;BME280;46314;52.392;9.758;2023-02-21T03:03:34;100883.06;;;10.01;100.00
60465;BME280;46314;52.392;9.758;2023-02-21T03:06:18;100885.03;;;9.66;100.00
60465;BME280;46314;52.392;9.758;2023-02-21T03:08:52;100873.31;;;9.80;100.00
60465;BME280;46314;52.392;9.758;2023-02-21T03:11:24;100875.91;;;9.95;100.00
60465;BME280;46314;52.392;9.758;2023-02-21T03:13:54;100874.47;;;10.03;100.00
60465;BME280;46314;52.392;9.758;2023-02-21T03:16:24;100877.22;;;10.03;100.00
60465;BME280;46314;52.392;9.758;2023-02-21T03:18:55;100868.81;;;9.84;100.00
60465;BME280;46314;52.392;9.758;2023-02-21T03:21:27;100872.44;;;9.50;100.00
60465;BME280;46314;52.392;9.758;2023-02-21T03:23:57;100866.09;;;9.79;100.00
60465;BME280;46314;52.392;9.758;2023-02-21T03:26:27;100864.78;;;10.00;100.00
60465;BME280;46314;52.392;9.758;2023-02-21T03:28:56;100870.13;;;9.92;100.00
60465;BME280;46314;52.392;9.758;2023-02-21T03:31:25;100872.75;;;9.78;100.00
60465;BME280;46314;52.392;9.758;2023-02-21T03:33:54;100866.22;;;9.63;100.00
60465;BME280;46314;52.392;9.758;2023-02-21T03:36:21;100874.84;;;9.57;100.00
60465;BME280;46314;52.392;9.758;2023-02-21T03:38:49;100865.84;;;9.75;100.00
60465;BME280;46314;52.392;9.758;2023-02-21T03:41:16;100857.25;;;10.30;100.00
60465;BME280;46314;52.392;9.758;2023-02-21T03:43:42;100863.53;;;9.88;100.00
60465;BME280;46314;52.392;9.758;2023-02-21T03:46:09;100865.84;;;10.04;100.00
60465;BME280;46314;52.392;9.758;2023-02-21T03:48:35;100869.88;;;10.17;100.00
60465;BME280;46314;52.392;9.758;2023-02-21T03:51:02;100861.19;;;10.00;100.00
60465;BME280;46314;52.392;9.758;2023-02-21T03:53:28;100863.53;;;9.88;100.00
60465;BME280;46314;52.392;9.758;2023-02-21T03:55:56;100864.53;;;9.68;100.00
60465;BME280;46314;52.392;9.758;2023-02-21T03:58:23;100853.09;;;9.74;100.00
60465;BME280;46314;52.392;9.758;2023-02-21T04:00:49;100866.91;;;9.79;100.00
60465;BME280;46314;52.392;9.758;2023-02-21T04:03:16;100862.97;;;9.56;100.00
60465;BME280;46314;52.392;9.758;2023-02-21T04:05:43;100864.06;;;9.60;100.00
60465;BME280;46314;52.392;9.758;2023-02-21T04:08:09;100852.38;;;9.63;100.00
60465;BME280;46314;52.392;9.758;2023-02-21T04:10:36;100860.41;;;9.65;100.00
60465;BME280;46314;52.392;9.758;2023-02-21T04:13:18;100849.22;;;9.75;100.00
60465;BME280;46314;52.392;9.758;2023-02-21T04:15:44;100850.66;;;9.73;100.00
60465;BME280;46314;52.392;9.758;2023-02-21T04:18:10;100844.28;;;9.72;100.00
60465;BME280;46314;52.392;9.758;2023-02-21T04:20:37;100842.16;;;9.64;100.00
60465;BME280;46314;52.392;9.758;2023-02-21T04:23:03;100843.69;;;9.75;100.00
60465;BME280;46314;52.392;9.758;2023-02-21T04:25:30;100841.66;;;9.86;100.00
60465;BME280;46314;52.392;9.758;2023-02-21T04:27:56;100846.19;;;9.77;100.00
60465;BME280;46314;52.392;9.758;2023-02-21T04:30:24;100842.31;;;10.02;100.00
60465;BME280;46314;52.392;9.758;2023-02-21T04:32:50;100838.44;;;9.74;100.00
60465;BME280;46314;52.392;9.758;2023-02-21T04:35:17;100845.38;;;10.00;100.00
60465;BME280;46314;52.392;9.758;2023-02-21T04:37:44;100845.22;;;9.86;100.00
60465;BME280;46314;52.392;9.758;2023-02-21T04:40:10;100849.38;;;9.89;100.00
60465;BME280;46314;52.392;9.758;2023-02-21T04:42:37;100843.06;;;10.08;100.00
60465;BME280;46314;52.392;9.758;2023-02-21T04:45:04;100841.16;;;9.79;100.00
60465;BME280;46314;52.392;9.758;2023-02-21T04:47:32;100847.88;;;9.73;100.00
60465;BME280;46314;52.392;9.758;2023-02-21T04:49:58;100836.94;;;9.57;100.00
60465;BME280;46314;52.392;9.758;2023-02-21T04:52:24;100843.13;;;9.78;100.00
60465;BME280;46314;52.392;9.758;2023-02-21T04:54:51;100842.50;;;9.81;100.00
60465;BME280;46314;52.392;9.758;2023-02-21T04:57:17;100826.09;;;9.61;100.00
60465;BME280;46314;52.392;9.758;2023-02-21T04:59:44;100829.56;;;9.77;100.00
60465;BME280;46314;52.392;9.758;2023-02-21T05:02:10;100826.63;;;9.63;100.00
60465;BME280;46314;52.392;9.758;2023-02-21T05:04:38;100824.53;;;9.79;100.00
60465;BME280;46314;52.392;9.758;2023-02-21T05:07:05;100824.69;;;9.93;100.00
60465;BME280;46314;52.392;9.758;2023-02-21T05:09:31;100830.03;;;9.84;100.00
60465;BME280;46314;52.392;9.758;2023-02-21T05:11:58;100828.22;;;9.69;100.00
60465;BME280;46314;52.392;9.758;2023-02-21T05:14:24;100824.25;;;9.80;100.00
60465;BME280;46314;52.392;9.758;2023-02-21T05:16:51;100832.84;;;9.50;100.00
60465;BME280;46314;52.392;9.758;2023-02-21T05:19:18;100830.19;;;9.98;100.00
60465;BME280;46314;52.392;9.758;2023-02-21T05:21:46;100836.63;;;9.88;100.00
60465;BME280;46314;52.392;9.758;2023-02-21T05:24:12;100835.66;;;9.74;100.00
60465;BME280;46314;52.392;9.758;2023-02-21T05:26:39;100836.09;;;9.86;100.00
60465;BME280;46314;52.392;9.758;2023-02-21T05:29:05;100839.88;;;9.71;100.00
60465;BME280;46314;52.392;9.758;2023-02-21T05:31:32;100837.84;;;10.06;100.00
60465;BME280;46314;52.392;9.758;2023-02-21T05:33:59;100828.13;;;9.50;100.00
60465;BME280;46314;52.392;9.758;2023-02-21T05:36:25;100843.56;;;9.91;100.00
60465;BME280;46314;52.392;9.758;2023-02-21T05:38:54;100835.88;;;9.82;100.00
60465;BME280;46314;52.392;9.758;2023-02-21T05:41:21;100839.41;;;9.88;100.00
60465;BME280;46314;52.392;9.758;2023-02-21T05:43:48;100837.78;;;9.53;100.00
60465;BME280;46314;52.392;9.758;2023-02-21T05:46:19;100842.88;;;9.75;100.00
60465;BME280;46314;52.392;9.758;2023-02-21T05:48:46;100845.72;;;9.64;100.00
60465;BME280;46314;52.392;9.758;2023-02-21T05:51:13;100843.13;;;9.44;100.00
60465;BME280;46314;52.392;9.758;2023-02-21T05:53:40;100843.88;;;9.84;100.00
60465;BME280;46314;52.392;9.758;2023-02-21T05:56:08;100842.22;;;9.83;100.00
60465;BME280;46314;52.392;9.758;2023-02-21T05:58:36;100854.69;;;9.85;100.00
60465;BME280;46314;52.392;9.758;2023-02-21T06:01:02;100852.00;;;10.04;100.00
60465;BME280;46314;52.392;9.758;2023-02-21T06:03:29;100849.66;;;9.88;100.00
60465;BME280;46314;52.392;9.758;2023-02-21T06:05:55;100859.97;;;9.82;100.00
60465;BME280;46314;52.392;9.758;2023-02-21T06:08:22;100854.31;;;9.63;100.00
60465;BME280;46314;52.392;9.758;2023-02-21T06:10:48;100854.16;;;9.83;100.00
60465;BME280;46314;52.392;9.758;2023-02-21T06:13:16;100857.22;;;9.82;100.00
60465;BME280;46314;52.392;9.758;2023-02-21T06:15:42;100858.06;;;10.07;100.00
60465;BME280;46314;52.392;9.758;2023-02-21T06:18:11;100852.47;;;10.12;100.00
60465;BME280;46314;52.392;9.758;2023-02-21T06:20:38;100855.00;;;10.08;100.00
60465;BME280;46314;52.392;9.758;2023-02-21T06:23:04;100859.84;;;10.21;100.00
60465;BME280;46314;52.392;9.758;2023-02-21T06:25:30;100857.97;;;9.88;100.00
60465;BME280;46314;52.392;9.758;2023-02-21T06:27:57;100866.03;;;10.13;100.00
60465;BME280;46314;52.392;9.758;2023-02-21T06:30:25;100860.47;;;9.89;100.00
60465;BME280;46314;52.392;9.758;2023-02-21T06:32:51;100866.91;;;10.09;100.00
60465;BME280;46314;52.392;9.758;2023-02-21T06:35:18;100850.81;;;10.11;100.00
60465;BME280;46314;52.392;9.758;2023-02-21T06:37:44;100867.75;;;9.80;100.00
60465;BME280;46314;52.392;9.758;2023-02-21T06:40:11;100864.72;;;10.05;100.00
60465;BME280;46314;52.392;9.758;2023-02-21T06:42:37;100863.03;;;9.80;100.00
60465;BME280;46314;52.392;9.758;2023-02-21T06:45:04;100859.75;;;10.32;100.00
60465;BME280;46314;52.392;9.758;2023-02-21T06:47:32;100873.69;;;9.97;100.00
60465;BME280;46314;52.392;9.758;2023-02-21T06:49:58;100868.50;;;10.15;100.00
60465;BME280;46314;52.392;9.758;2023-02-21T06:52:24;100878.19;;;9.88;100.00
60465;BME280;46314;52.392;9.758;2023-02-21T06:54:52;100881.13;;;10.02;100.00
60465;BME280;46314;52.392;9.758;2023-02-21T06:57:18;100884.78;;;10.21;100.00
60465;BME280;46314;52.392;9.758;2023-02-21T06:59:45;100885.78;;;10.07;100.00
60465;BME280;46314;52.392;9.758;2023-02-21T07:02:15;100885.66;;;9.58;100.00
60465;BME280;46314;52.392;9.758;2023-02-21T07:04:43;100895.50;;;10.04;100.00
60465;BME280;46314;52.392;9.758;2023-02-21T07:07:10;100898.31;;;9.99;100.00
60465;BME280;46314;52.392;9.758;2023-02-21T07:09:36;100896.81;;;10.12;100.00
60465;BME280;46314;52.392;9.758;2023-02-21T07:12:03;100904.53;;;10.15;100.00
60465;BME280;46314;52.392;9.758;2023-02-21T07:14:29;100904.09;;;10.02;100.00
60465;BME280;46314;52.392;9.758;2023-02-21T07:16:56;100911.78;;;10.11;100.00
60465;BME280;46314;52.392;9.758;2023-02-21T07:19:22;100917.81;;;10.18;100.00
60465;BME280;46314;52.392;9.758;2023-02-21T07:21:50;100917.66;;;10.38;100.00
60465;BME280;46314;52.392;9.758;2023-02-21T07:24:16;100921.16;;;10.15;100.00
60465;BME280;46314;52.392;9.758;2023-02-21T07:26:43;100925.69;;;10.05;100.00
60465;BME280;46314;52.392;9.758;2023-02-21T07:29:09;100924.44;;;10.22;100.00
60465;BME280;46314;52.392;9.758;2023-02-21T07:31:35;100929.25;;;10.40;100.00
60465;BME280;46314;52.392;9.758;2023-02-21T07:34:02;100922.88;;;10.11;100.00
60465;BME280;46314;52.392;9.758;2023-02-21T07:36:28;100927.22;;;10.22;100.00
60465;BME280;46314;52.392;9.758;2023-02-21T07:38:56;100927.50;;;10.20;100.00
60465;BME280;46314;52.392;9.758;2023-02-21T07:41:22;100936.28;;;10.57;100.00
60465;BME280;46314;52.392;9.758;2023-02-21T07:43:49;100933.75;;;10.36;100.00
60465;BME280;46314;52.392;9.758;2023-02-21T07:46:16;100937.06;;;10.38;100.00
60465;BME280;46314;52.392;9.758;2023-02-21T07:48:44;100934.94;;;10.54;100.00
60465;BME280;46314;52.392;9.758;2023-02-21T07:51:10;100942.69;;;10.57;100.00
60465;BME280;46314;52.392;9.758;2023-02-21T07:53:37;100944.38;;;10.24;100.00
60465;BME280;46314;52.392;9.758;2023-02-21T07:56:05;100952.31;;;10.36;100.00
60465;BME280;46314;52.392;9.758;2023-02-21T07:58:32;100939.59;;;10.35;100.00
60465;BME280;46314;52.392;9.758;2023-02-21T08:00:58;100942.03;;;10.41;100.00
60465;BME280;46314;52.392;9.758;2023-02-21T08:03:24;100947.13;;;10.53;100.00
60465;BME280;46314;52.392;9.758;2023-02-21T08:05:51;100952.50;;;10.45;100.00
60465;BME280;46314;52.392;9.758;2023-02-21T08:08:17;100953.75;;;9.99;100.00
60465;BME280;46314;52.392;9.758;2023-02-21T08:10:43;100968.47;;;10.23;100.00
60465;BME280;46314;52.392;9.758;2023-02-21T08:13:12;100958.25;;;10.24;100.00
60465;BME280;46314;52.392;9.758;2023-02-21T08:15:38;100966.97;;;10.41;100.00
60465;BME280;46314;52.392;9.758;2023-02-21T08:18:05;100954.88;;;10.56;100.00
60465;BME280;46314;52.392;9.758;2023-02-21T08:20:31;100974.13;;;10.72;100.00
60465;BME280;46314;52.392;9.758;2023-02-21T08:22:58;100962.81;;;10.39;100.00
60465;BME280;46314;52.392;9.758;2023-02-21T08:25:24;100960.00;;;10.44;100.00
60465;BME280;46314;52.392;9.758;2023-02-21T08:27:50;100970.16;;;10.24;100.00
60465;BME280;46314;52.392;9.758;2023-02-21T08:30:18;100973.06;;;10.44;100.00
60465;BME280;46314;52.392;9.758;2023-02-21T08:32:45;100975.94;;;10.82;100.00
60465;BME280;46314;52.392;9.758;2023-02-21T08:35:12;100976.25;;;10.56;100.00
60465;BME280;46314;52.392;9.758;2023-02-21T08:37:39;100980.28;;;10.39;100.00
60465;BME280;46314;52.392;9.758;2023-02-21T08:40:05;100981.69;;;10.02;100.00
60465;BME280;46314;52.392;9.758;2023-02-21T08:42:32;100978.16;;;10.85;100.00
60465;BME280;46314;52.392;9.758;2023-02-21T08:44:58;100978.03;;;10.95;100.00
60465;BME280;46314;52.392;9.758;2023-02-21T08:47:26;100984.56;;;10.56;100.00
60465;BME280;46314;52.392;9.758;2023-02-21T08:49:52;100977.59;;;10.58;100.00
60465;BME280;46314;52.392;9.758;2023-02-21T08:52:19;100989.41;;;10.45;100.00
60465;BME280;46314;52.392;9.758;2023-02-21T08:54:45;100988.28;;;10.70;100.00
60465;BME280;46314;52.392;9.758;2023-02-21T08:57:12;100986.28;;;11.00;100.00
60465;BME280;46314;52.392;9.758;2023-02-21T08:59:39;100992.75;;;10.71;100.00
60465;BME280;46314;52.392;9.758;2023-02-21T09:02:05;100996.97;;;10.64;100.00
60465;BME280;46314;52.392;9.758;2023-02-21T09:04:34;100986.41;;;10.66;100.00
60465;BME280;46314;52.392;9.758;2023-02-21T09:07:00;100986.78;;;10.59;100.00
60465;BME280;46314;52.392;9.758;2023-02-21T09:09:27;100984.84;;;10.84;100.00
60465;BME280;46314;52.392;9.758;2023-02-21T09:11:53;100987.28;;;10.85;100.00
60465;BME280;46314;52.392;9.758;2023-02-21T09:14:19;100982.00;;;10.89;100.00
60465;BME280;46314;52.392;9.758;2023-02-21T09:16:46;100976.84;;;10.53;100.00
60465;BME280;46314;52.392;9.758;2023-02-21T09:19:13;100974.59;;;10.79;100.00
60465;BME280;46314;52.392;9.758;2023-02-21T09:21:45;100983.63;;;10.66;100.00
60465;BME280;46314;52.392;9.758;2023-02-21T09:24:12;100981.50;;;10.82;100.00
60465;BME280;46314;52.392;9.758;2023-02-21T09:26:38;100975.13;;;10.57;100.00
60465;BME280;46314;52.392;9.758;2023-02-21T09:29:05;100976.81;;;10.82;100.00
60465;BME280;46314;52.392;9.758;2023-02-21T09:31:31;100984.03;;;10.54;100.00
60465;BME280;46314;52.392;9.758;2023-02-21T09:33:57;100972.75;;;10.69;100.00
60465;BME280;46314;52.392;9.758;2023-02-21T09:36:24;100971.88;;;10.74;100.00
60465;BME280;46314;52.392;9.758;2023-02-21T09:38:52;100973.25;;;10.76;100.00
60465;BME280;46314;52.392;9.758;2023-02-21T09:41:18;100965.03;;;10.90;100.00
60465;BME280;46314;52.392;9.758;2023-02-21T09:43:46;100965.19;;;10.99;100.00
60465;BME280;46314;52.392;9.758;2023-02-21T09:46:18;100974.13;;;10.96;100.00
60465;BME280;46314;52.392;9.758;2023-02-21T09:48:46;100969.56;;;11.05;100.00
60465;BME280;46314;52.392;9.758;2023-02-21T09:51:13;100975.25;;;11.38;100.00
60465;BME280;46314;52.392;9.758;2023-02-21T09:53:42;100978.78;;;11.44;100.00
60465;BME280;46314;52.392;9.758;2023-02-21T09:56:13;100975.94;;;11.49;100.00
60465;BME280;46314;52.392;9.758;2023-02-21T09:58:43;100982.50;;;11.34;100.00
60465;BME280;46314;52.392;9.758;2023-02-21T10:01:18;100984.69;;;11.37;100.00
60465;BME280;46314;52.392;9.758;2023-02-21T10:03:48;100975.09;;;11.48;100.00
60465;BME280;46314;52.392;9.758;2023-02-21T10:06:26;100968.50;;;11.44;100.00
60465;BME280;46314;52.392;9.758;2023-02-21T10:09:00;100975.47;;;11.61;100.00
60465;BME280;46314;52.392;9.758;2023-02-21T10:11:38;100974.50;;;11.89;100.00
60465;BME280;46314;52.392;9.758;2023-02-21T10:14:17;100979.13;;;11.18;100.00
60465;BME280;46314;52.392;9.758;2023-02-21T10:16:49;100980.31;;;11.31;100.00
60465;BME280;46314;52.392;9.758;2023-02-21T10:19:18;100979.00;;;11.47;100.00
60465;BME280;46314;52.392;9.758;2023-02-21T10:21:48;100981.53;;;11.25;100.00
60465;BME280;46314;52.392;9.758;2023-02-21T10:24:16;100979.47;;;11.54;100.00
60465;BME280;46314;52.392;9.758;2023-02-21T10:26:48;100977.44;;;11.60;100.00
60465;BME280;46314;52.392;9.758;2023-02-21T10:29:20;100986.97;;;11.92;100.00
60465;BME280;46314;52.392;9.758;2023-02-21T10:31:50;100977.72;;;11.40;100.00
60465;BME280;46314;52.392;9.758;2023-02-21T10:34:23;100974.19;;;11.34;100.00
60465;BME280;46314;52.392;9.758;2023-02-21T10:36:51;100986.94;;;11.73;100.00
60465;BME280;46314;52.392;9.758;2023-02-21T10:39:21;100984.72;;;11.56;100.00
60465;BME280;46314;52.392;9.758;2023-02-21T10:41:51;100978.56;;;11.40;100.00
60465;BME280;46314;52.392;9.758;2023-02-21T10:44:21;100984.19;;;11.54;100.00
60465;BME280;46314;52.392;9.758;2023-02-21T10:46:59;100989.72;;;11.73;100.00
60465;BME280;46314;52.392;9.758;2023-02-21T10:49:30;100995.59;;;11.33;100.00
60465;BME280;46314;52.392;9.758;2023-02-21T10:52:09;101005.94;;;11.28;100.00
60465;BME280;46314;52.392;9.758;2023-02-21T10:54:36;100998.97;;;11.06;100.00
60465;BME280;46314;52.392;9.758;2023-02-21T10:57:06;100999.75;;;10.88;100.00
60465;BME280;46314;52.392;9.758;2023-02-21T10:59:35;101000.97;;;11.25;100.00
60465;BME280;46314;52.392;9.758;2023-02-21T11:02:29;101008.44;;;11.05;100.00
60465;BME280;46314;52.392;9.758;2023-02-21T11:05:07;101015.66;;;11.49;100.00
60465;BME280;46314;52.392;9.758;2023-02-21T11:07:34;101015.03;;;11.33;100.00
60465;BME280;46314;52.392;9.758;2023-02-21T11:10:01;101011.56;;;11.23;100.00
60465;BME280;46314;52.392;9.758;2023-02-21T11:12:29;101016.88;;;11.19;100.00
60465;BME280;46314;52.392;9.758;2023-02-21T11:15:09;101008.31;;;10.67;100.00
60465;BME280;46314;52.392;9.758;2023-02-21T11:17:41;101014.81;;;11.06;100.00
60465;BME280;46314;52.392;9.758;2023-02-21T11:20:16;101009.03;;;11.45;100.00
60465;BME280;46314;52.392;9.758;2023-02-21T11:22:45;101015.28;;;11.13;100.00
60465;BME280;46314;52.392;9.758;2023-02-21T11:25:20;101007.91;;;11.65;100.00
60465;BME280;46314;52.392;9.758;2023-02-21T11:28:02;101011.81;;;11.45;100.00
60465;BME280;46314;52.392;9.758;2023-02-21T11:30:31;101018.31;;;11.35;100.00
60465;BME280;46314;52.392;9.758;2023-02-21T11:32:59;101008.44;;;11.29;100.00
60465;BME280;46314;52.392;9.758;2023-02-21T11:35:28;101013.03;;;11.58;100.00
60465;BME280;46314;52.392;9.758;2023-02-21T11:37:57;101002.19;;;11.37;100.00
60465;BME280;46314;52.392;9.758;2023-02-21T11:40:40;101007.56;;;11.72;100.00
60465;BME280;46314;52.392;9.758;2023-02-21T11:43:18;101000.41;;;11.47;100.00
60465;BME280;46314;52.392;9.758;2023-02-21T11:45:53;100997.16;;;11.59;100.00
60465;BME280;46314;52.392;9.758;2023-02-21T11:48:21;100999.88;;;12.35;98.33
60465;BME280;46314;52.392;9.758;2023-02-21T11:50:50;101001.69;;;12.58;95.97
60465;BME280;46314;52.392;9.758;2023-02-21T11:53:21;100998.75;;;12.03;99.99
60465;BME280;46314;52.392;9.758;2023-02-21T11:55:54;100991.53;;;12.95;95.00
60465;BME280;46314;52.392;9.758;2023-02-21T11:58:29;100990.19;;;12.79;94.11
60465;BME280;46314;52.392;9.758;2023-02-21T12:01:00;100990.53;;;12.44;96.76
60465;BME280;46314;52.392;9.758;2023-02-21T12:03:43;100989.56;;;12.21;97.04
60465;BME280;46314;52.392;9.758;2023-02-21T12:06:16;100991.00;;;13.07;92.87
60465;BME280;46314;52.392;9.758;2023-02-21T12:08:51;100991.91;;;12.75;94.15
60465;BME280;46314;52.392;9.758;2023-02-21T12:11:30;100996.28;;;12.95;92.29
60465;BME280;46314;52.392;9.758;2023-02-21T12:16:56;100994.34;;;12.48;96.36
60465;BME280;46314;52.392;9.758;2023-02-21T12:19:39;100989.63;;;12.49;95.88
60465;BME280;46314;52.392;9.758;2023-02-21T12:22:18;100983.84;;;12.59;94.76
60465;BME280;46314;52.392;9.758;2023-02-21T12:24:58;100986.47;;;12.97;92.67
60465;BME280;46314;52.392;9.758;2023-02-21T12:27:32;100995.53;;;12.61;93.36
60465;BME280;46314;52.392;9.758;2023-02-21T12:30:16;100989.00;;;12.52;94.26
60465;BME280;46314;52.392;9.758;2023-02-21T12:32:49;100985.41;;;12.65;94.62
60465;BME280;46314;52.392;9.758;2023-02-21T12:35:52;100981.94;;;12.87;92.50
60465;BME280;46314;52.392;9.758;2023-02-21T12:38:25;100986.44;;;12.69;93.34
60465;BME280;46314;52.392;9.758;2023-02-21T12:41:00;100976.56;;;12.77;93.41
60465;BME280;46314;52.392;9.758;2023-02-21T12:43:41;100971.91;;;12.59;94.13
60465;BME280;46314;52.392;9.758;2023-02-21T12:46:18;100961.06;;;12.57;94.64
60465;BME280;46314;52.392;9.758;2023-02-21T12:48:50;100968.63;;;12.98;93.59
60465;BME280;46314;52.392;9.758;2023-02-21T12:51:20;100965.16;;;13.57;89.75
60465;BME280;46314;52.392;9.758;2023-02-21T12:53:51;100972.06;;;13.82;88.31
60465;BME280;46314;52.392;9.758;2023-02-21T12:56:23;100959.91;;;13.27;89.90
60465;BME280;46314;52.392;9.758;2023-02-21T12:58:55;100967.38;;;13.04;91.41
60465;BME280;46314;52.392;9.758;2023-02-21T13:01:29;100963.03;;;12.57;95.60